Time;durP1;ratioP1;P1;durP2;ratioP2;P2;SDS_P1;SDS_P2;PMS_P1;PMS_P2;Temp;Humidity;BMP_temperature;BMP_pressure;BME280_temperature;BME280_humidity;BME280_pressure;Samples;Min_cycle;Max_cycle;Signal;HPM_P1;HPM_P2
2023/03/17 00:01:15;;;;;;;;;;;9.60;98.80;;;;;;5000304;28;20048;-88
2023/03/17 00:03:41;;;;;;;;;;;9.60;99.10;;;;;;4999722;28;19996;-88
2023/03/17 00:06:17;;;;;;;;;;;9.60;99.00;;;;;;5017177;28;19916;-90
2023/03/17 00:08:44;;;;;;;;;;;9.60;98.80;;;;;;5000115;28;19917;-90
2023/03/17 00:11:13;;;;;;;;;;;9.60;98.70;;;;;;4999848;28;19996;-89
2023/03/17 00:13:40;;;;;;;;;;;9.60;98.80;;;;;;4999617;28;19955;-89
2023/03/17 00:16:11;;;;;;;;;;;9.60;98.90;;;;;;4999714;28;19923;-89
2023/03/17 00:18:37;;;;;;;;;;;9.60;99.00;;;;;;4999551;28;19956;-89
2023/03/17 00:21:03;;;;;;;;;;;9.60;98.80;;;;;;4983451;28;19972;-89
2023/03/17 00:23:29;;;;;;;;;;;9.60;98.70;;;;;;4998935;28;19996;-93
2023/03/17 00:25:56;;;;;;;;;;;9.60;98.50;;;;;;4983999;28;20354;-94
2023/03/17 00:28:23;;;;;;;;;;;9.60;98.80;;;;;;4983874;28;20330;-93
2023/03/17 00:30:53;;;;;;;;;;;9.60;98.90;;;;;;5014079;28;19980;-94
2023/03/17 00:33:21;;;;;;;;;;;9.50;98.80;;;;;;5039589;28;20282;-93
2023/03/17 00:35:46;;;;;;;;;;;9.50;98.80;;;;;;5039451;28;19908;-94
2023/03/17 00:38:16;;;;;;;;;;;9.50;98.90;;;;;;5022884;28;20285;-93
2023/03/17 00:40:43;;;;;;;;;;;9.50;98.70;;;;;;5038475;28;20011;-89
2023/03/17 00:43:09;;;;;;;;;;;9.40;98.80;;;;;;5039863;28;20400;-89
2023/03/17 00:45:53;;;;;;;;;;;9.40;99.10;;;;;;5023130;28;19917;-89
2023/03/17 00:48:20;;;;;;;;;;;9.40;98.90;;;;;;5039643;28;19974;-89
2023/03/17 00:50:46;;;;;;;;;;;9.40;99.00;;;;;;5040539;28;19917;-89
2023/03/17 00:53:13;;;;;;;;;;;9.40;99.00;;;;;;5039891;28;19909;-89
2023/03/17 00:55:40;;;;;;;;;;;9.40;99.10;;;;;;5039035;28;19963;-93
2023/03/17 00:58:13;;;;;;;;;;;9.40;99.10;;;;;;5022523;28;19917;-93
2023/03/17 01:00:38;;;;;;;;;;;9.40;99.10;;;;;;5038686;28;19963;-93
2023/03/17 01:03:04;;;;;;;;;;;9.40;99.20;;;;;;5038714;28;19909;-94
2023/03/17 01:05:29;;;;;;;;;;;9.40;99.30;;;;;;5022008;28;19917;-94
2023/03/17 01:07:56;;;;;;;;;;;9.30;99.10;;;;;;5037933;28;19916;-93
2023/03/17 01:10:24;;;;;;;;;;;9.40;99.00;;;;;;5038431;28;19908;-94
2023/03/17 01:12:50;;;;;;;;;;;9.30;99.10;;;;;;5038359;28;19909;-89
2023/03/17 01:15:16;;;;;;;;;;;9.30;99.30;;;;;;5038084;28;20357;-89
2023/03/17 01:17:42;;;;;;;;;;;9.30;99.20;;;;;;5037750;28;19909;-89
2023/03/17 01:20:12;;;;;;;;;;;9.30;99.20;;;;;;5021302;28;19920;-89
2023/03/17 01:22:37;;;;;;;;;;;9.30;99.10;;;;;;5037994;28;19916;-89
2023/03/17 01:25:03;;;;;;;;;;;9.30;99.20;;;;;;5021170;28;19912;-89
2023/03/17 01:27:32;;;;;;;;;;;9.30;99.20;;;;;;5037781;28;20362;-89
2023/03/17 01:29:58;;;;;;;;;;;9.20;99.00;;;;;;5037623;28;19916;-88
2023/03/17 01:32:24;;;;;;;;;;;9.30;99.20;;;;;;5037180;28;20278;-88
2023/03/17 01:34:51;;;;;;;;;;;9.30;99.20;;;;;;5020839;28;19948;-88
2023/03/17 01:37:16;;;;;;;;;;;9.30;99.10;;;;;;5021062;28;19912;-88
2023/03/17 01:39:42;;;;;;;;;;;9.30;99.00;;;;;;5036478;28;19943;-88
2023/03/17 01:42:07;;;;;;;;;;;9.30;99.30;;;;;;5020397;28;20427;-88
2023/03/17 01:44:33;;;;;;;;;;;9.30;99.30;;;;;;5020357;28;20402;-89
2023/03/17 01:46:59;;;;;;;;;;;9.30;99.10;;;;;;5021650;28;19917;-93
2023/03/17 01:49:36;;;;;;;;;;;9.30;99.30;;;;;;5037855;28;19925;-92
2023/03/17 01:52:06;;;;;;;;;;;9.30;99.20;;;;;;5037763;28;20310;-93
2023/03/17 01:54:38;;;;;;;;;;;9.20;98.90;;;;;;5051545;28;19909;-93
2023/03/17 01:57:08;;;;;;;;;;;9.20;98.80;;;;;;5054278;28;19953;-94
2023/03/17 01:59:35;;;;;;;;;;;9.30;99.10;;;;;;5054797;28;19916;-93
2023/03/17 02:02:03;;;;;;;;;;;9.20;98.70;;;;;;5054454;28;19913;-88
2023/03/17 02:04:30;;;;;;;;;;;9.20;99.00;;;;;;5053481;28;19908;-88
2023/03/17 02:06:56;;;;;;;;;;;9.30;99.00;;;;;;5036709;28;19927;-88
2023/03/17 02:09:22;;;;;;;;;;;9.30;99.10;;;;;;5036873;28;19913;-88
2023/03/17 02:11:48;;;;;;;;;;;9.30;99.00;;;;;;5054138;28;20001;-93
2023/03/17 02:14:13;;;;;;;;;;;9.30;99.30;;;;;;5038161;28;19913;-93
2023/03/17 02:16:39;;;;;;;;;;;9.20;99.10;;;;;;5041462;28;19913;-93
2023/03/17 02:19:04;;;;;;;;;;;9.30;99.20;;;;;;5057377;28;19913;-93
2023/03/17 02:21:35;;;;;;;;;;;9.20;99.00;;;;;;5040313;28;19913;-93
2023/03/17 02:24:04;;;;;;;;;;;9.20;99.00;;;;;;5054960;28;19944;-93
2023/03/17 02:26:31;;;;;;;;;;;9.30;99.00;;;;;;5053932;28;19913;-93
2023/03/17 02:28:57;;;;;;;;;;;9.20;98.80;;;;;;5054150;28;19924;-93
2023/03/17 02:31:24;;;;;;;;;;;9.20;99.00;;;;;;5037501;28;20380;-94
2023/03/17 02:33:49;;;;;;;;;;;9.20;99.10;;;;;;5036822;28;20380;-88
2023/03/17 02:36:15;;;;;;;;;;;9.20;98.80;;;;;;5037062;28;19916;-94
2023/03/17 02:38:41;;;;;;;;;;;9.10;99.00;;;;;;5037488;28;19920;-93
2023/03/17 02:41:08;;;;;;;;;;;9.10;99.00;;;;;;5055292;28;19916;-93
2023/03/17 02:43:34;;;;;;;;;;;9.20;99.20;;;;;;5006082;28;19937;-94
2023/03/17 02:46:00;;;;;;;;;;;9.20;99.20;;;;;;5014466;28;19916;-95
2023/03/17 02:48:26;;;;;;;;;;;9.10;99.20;;;;;;5020915;28;20007;-92
2023/03/17 02:50:51;;;;;;;;;;;9.10;99.20;;;;;;5037913;28;20338;-94
2023/03/17 02:53:17;;;;;;;;;;;9.10;99.30;;;;;;5024569;28;19944;-92
2023/03/17 02:55:43;;;;;;;;;;;9.10;99.10;;;;;;5026372;28;19960;-92
2023/03/17 02:58:09;;;;;;;;;;;9.10;99.10;;;;;;5023339;28;19913;-93
2023/03/17 03:00:34;;;;;;;;;;;9.10;99.30;;;;;;5039756;28;19920;-93
2023/03/17 03:03:00;;;;;;;;;;;9.10;99.20;;;;;;5037306;28;20366;-89
2023/03/17 03:05:25;;;;;;;;;;;9.00;99.20;;;;;;5020630;28;19914;-89
2023/03/17 03:07:51;;;;;;;;;;;9.00;99.50;;;;;;5020356;28;20363;-89
2023/03/17 03:10:17;;;;;;;;;;;9.00;99.30;;;;;;5036917;28;19917;-88
2023/03/17 03:12:43;;;;;;;;;;;9.00;99.30;;;;;;5004662;28;19913;-94
2023/03/17 03:18:12;;;;;;;;;;;9.00;99.40;;;;;;5038465;28;20017;-94
2023/03/17 03:20:40;;;;;;;;;;;9.10;99.40;;;;;;5020599;28;19913;-94
2023/03/17 03:23:05;;;;;;;;;;;9.00;99.30;;;;;;5020962;28;19910;-94
2023/03/17 03:25:31;;;;;;;;;;;9.10;99.60;;;;;;5004446;28;19920;-87
2023/03/17 03:27:57;;;;;;;;;;;9.00;99.60;;;;;;5004662;28;19924;-89
2023/03/17 03:30:22;;;;;;;;;;;9.00;99.60;;;;;;5007386;28;19913;-88
2023/03/17 03:32:48;;;;;;;;;;;9.00;99.30;;;;;;5025077;28;19944;-88
2023/03/17 03:35:14;;;;;;;;;;;9.00;99.50;;;;;;5029179;28;19909;-88
2023/03/17 03:37:39;;;;;;;;;;;9.00;99.20;;;;;;5017988;28;20023;-89
2023/03/17 03:40:06;;;;;;;;;;;9.00;99.20;;;;;;5037946;28;20003;-92
2023/03/17 03:42:32;;;;;;;;;;;9.10;99.40;;;;;;5021332;28;20370;-92
2023/03/17 03:44:57;;;;;;;;;;;9.10;99.50;;;;;;5020850;28;19986;-94
2023/03/17 03:47:23;;;;;;;;;;;9.10;99.30;;;;;;5020661;28;19924;-93
2023/03/17 03:49:48;;;;;;;;;;;9.10;99.50;;;;;;5020495;28;19925;-93
2023/03/17 03:52:14;;;;;;;;;;;9.10;99.60;;;;;;5020047;28;19913;-94
2023/03/17 03:54:40;;;;;;;;;;;9.10;99.50;;;;;;5011032;28;19929;-95
2023/03/17 03:57:05;;;;;;;;;;;9.10;99.50;;;;;;5020307;28;19913;-94
2023/03/17 03:59:31;;;;;;;;;;;9.10;99.50;;;;;;5018799;28;19910;-94
2023/03/17 04:01:57;;;;;;;;;;;9.10;99.30;;;;;;5004455;28;19913;-94
2023/03/17 04:04:22;;;;;;;;;;;9.10;99.40;;;;;;5021386;28;19909;-93
2023/03/17 04:06:48;;;;;;;;;;;9.10;99.60;;;;;;5023946;28;19917;-95
2023/03/17 04:09:13;;;;;;;;;;;9.10;99.60;;;;;;5009713;28;20007;-95
2023/03/17 04:11:39;;;;;;;;;;;9.10;99.60;;;;;;5017790;28;19938;-95
2023/03/17 04:14:05;;;;;;;;;;;9.10;99.50;;;;;;5012555;28;19924;-95
2023/03/17 04:16:30;;;;;;;;;;;9.10;99.40;;;;;;5005080;28;19932;-94
2023/03/17 04:18:56;;;;;;;;;;;9.00;99.60;;;;;;5019784;28;19992;-94
2023/03/17 04:21:22;;;;;;;;;;;9.00;99.60;;;;;;5003495;28;19963;-93
2023/03/17 04:23:47;;;;;;;;;;;9.00;99.70;;;;;;4995639;28;19917;-94
2023/03/17 04:26:13;;;;;;;;;;;8.90;99.50;;;;;;5011029;28;19914;-94
2023/03/17 04:28:39;;;;;;;;;;;9.00;99.50;;;;;;5003097;28;19956;-93
2023/03/17 04:31:05;;;;;;;;;;;9.00;99.60;;;;;;5019291;28;20314;-94
2023/03/17 04:33:30;;;;;;;;;;;9.00;99.70;;;;;;5013493;28;19921;-89
2023/03/17 04:35:56;;;;;;;;;;;9.00;99.80;;;;;;5008061;28;19920;-90
2023/03/17 04:38:22;;;;;;;;;;;8.90;99.80;;;;;;4990178;28;20282;-90
2023/03/17 04:40:48;;;;;;;;;;;8.90;99.90;;;;;;5015401;28;19914;-89
2023/03/17 04:43:14;;;;;;;;;;;8.90;99.80;;;;;;4998642;28;20006;-89
2023/03/17 04:45:39;;;;;;;;;;;8.90;99.90;;;;;;5015608;28;20363;-90
2023/03/17 04:48:05;;;;;;;;;;;8.80;99.80;;;;;;5018533;28;19921;-90
2023/03/17 04:50:31;;;;;;;;;;;8.80;99.90;;;;;;5002036;28;19924;-88
2023/03/17 04:52:57;;;;;;;;;;;8.80;99.90;;;;;;5018397;28;19988;-88
2023/03/17 04:55:22;;;;;;;;;;;8.90;99.90;;;;;;5001813;28;20378;-88
2023/03/17 04:57:48;;;;;;;;;;;8.80;99.90;;;;;;5001944;28;20016;-88
2023/03/17 05:00:14;;;;;;;;;;;8.80;99.90;;;;;;5009571;28;19948;-88
2023/03/17 05:02:39;;;;;;;;;;;8.80;99.90;;;;;;5032727;28;20283;-88
2023/03/17 05:05:05;;;;;;;;;;;8.80;99.90;;;;;;5039242;28;19914;-88
2023/03/17 05:07:31;;;;;;;;;;;8.80;99.90;;;;;;5032314;28;20431;-90
2023/03/17 05:09:56;;;;;;;;;;;8.80;99.90;;;;;;5026856;28;19909;-90
2023/03/17 05:12:22;;;;;;;;;;;8.80;99.90;;;;;;5038076;28;20340;-89
2023/03/17 05:14:47;;;;;;;;;;;8.70;99.90;;;;;;5021965;28;20285;-90
2023/03/17 05:17:13;;;;;;;;;;;8.70;99.90;;;;;;5001832;28;20393;-89
2023/03/17 05:19:39;;;;;;;;;;;8.70;99.90;;;;;;5018845;28;19917;-89
2023/03/17 05:22:05;;;;;;;;;;;8.70;99.90;;;;;;5014071;28;19917;-95
2023/03/17 05:24:30;;;;;;;;;;;8.70;99.90;;;;;;5038639;28;19909;-93
2023/03/17 05:26:56;;;;;;;;;;;8.70;99.90;;;;;;5021917;28;20432;-94
2023/03/17 05:29:21;;;;;;;;;;;8.70;99.90;;;;;;5022361;28;19919;-94
2023/03/17 05:31:47;;;;;;;;;;;8.70;99.90;;;;;;5038505;28;19909;-94
2023/03/17 05:34:14;;;;;;;;;;;8.70;99.90;;;;;;5044765;28;19909;-94
2023/03/17 05:36:39;;;;;;;;;;;8.70;99.90;;;;;;5023611;28;20335;-94
2023/03/17 05:39:05;;;;;;;;;;;8.70;99.90;;;;;;5021704;28;19924;-89
2023/03/17 05:41:32;;;;;;;;;;;8.70;99.90;;;;;;5037446;28;19909;-89
2023/03/17 05:43:58;;;;;;;;;;;8.70;99.90;;;;;;5037750;28;20007;-89
2023/03/17 05:46:24;;;;;;;;;;;8.70;99.90;;;;;;5020984;28;19959;-93
2023/03/17 05:48:49;;;;;;;;;;;8.70;99.90;;;;;;5037549;28;20342;-90
2023/03/17 05:51:16;;;;;;;;;;;8.70;99.90;;;;;;5017312;28;21308;-90
2023/03/17 05:53:42;;;;;;;;;;;8.60;99.90;;;;;;5021758;28;19917;-89
2023/03/17 05:56:08;;;;;;;;;;;8.60;99.90;;;;;;5038263;28;20437;-95
2023/03/17 05:58:33;;;;;;;;;;;8.60;99.90;;;;;;5017880;28;19913;-95
2023/03/17 06:00:59;;;;;;;;;;;8.60;99.90;;;;;;5018374;28;20365;-94
2023/03/17 06:03:25;;;;;;;;;;;8.50;99.90;;;;;;5018188;28;19948;-96
2023/03/17 06:05:50;;;;;;;;;;;8.50;99.90;;;;;;5034333;28;20024;-95
2023/03/17 06:08:16;;;;;;;;;;;8.50;99.90;;;;;;5034311;28;19913;-95
2023/03/17 06:10:42;;;;;;;;;;;8.50;99.90;;;;;;5018756;28;19913;-94
2023/03/17 06:13:07;;;;;;;;;;;8.50;99.90;;;;;;5029314;28;19977;-93
2023/03/17 06:15:35;;;;;;;;;;;8.50;99.90;;;;;;5037037;28;19928;-95
2023/03/17 06:18:01;;;;;;;;;;;8.50;99.90;;;;;;5024435;28;19909;-93
2023/03/17 06:20:27;;;;;;;;;;;8.50;99.90;;;;;;5022075;28;19917;-92
2023/03/17 06:22:52;;;;;;;;;;;8.50;99.90;;;;;;5017273;28;20266;-93
2023/03/17 06:25:18;;;;;;;;;;;8.50;99.90;;;;;;5034448;28;19955;-93
2023/03/17 06:27:44;;;;;;;;;;;8.50;99.90;;;;;;5018439;28;19917;-93
2023/03/17 06:30:10;;;;;;;;;;;8.50;99.90;;;;;;5018234;28;19913;-92
2023/03/17 06:32:35;;;;;;;;;;;8.40;99.90;;;;;;5001365;28;19917;-92
2023/03/17 06:35:04;;;;;;;;;;;8.50;99.90;;;;;;5017677;28;20385;-92
2023/03/17 06:37:29;;;;;;;;;;;8.50;99.90;;;;;;5009276;28;19917;-92
2023/03/17 06:39:56;;;;;;;;;;;8.40;99.90;;;;;;5020565;28;19960;-92
2023/03/17 06:42:22;;;;;;;;;;;8.50;99.90;;;;;;5022290;28;19955;-94
2023/03/17 06:44:51;;;;;;;;;;;8.40;99.90;;;;;;5017600;28;19913;-93
2023/03/17 06:47:16;;;;;;;;;;;8.50;99.90;;;;;;5017998;28;20000;-94
2023/03/17 06:49:42;;;;;;;;;;;8.50;99.90;;;;;;5017124;28;19975;-95
2023/03/17 06:52:07;;;;;;;;;;;8.50;99.90;;;;;;5017597;28;19917;-95
2023/03/17 06:54:35;;;;;;;;;;;8.50;99.90;;;;;;5017174;28;20351;-94
2023/03/17 06:57:00;;;;;;;;;;;8.50;99.90;;;;;;5034888;28;19909;-95
2023/03/17 06:59:26;;;;;;;;;;;8.60;99.90;;;;;;5034082;28;20281;-95
2023/03/17 07:01:51;;;;;;;;;;;8.50;99.90;;;;;;5017331;28;19914;-95
2023/03/17 07:04:18;;;;;;;;;;;8.50;99.90;;;;;;5017425;28;19928;-95
2023/03/17 07:06:44;;;;;;;;;;;8.50;99.90;;;;;;5017505;28;19965;-95
2023/03/17 07:09:10;;;;;;;;;;;8.60;99.90;;;;;;5017348;28;20385;-94
2023/03/17 07:11:36;;;;;;;;;;;8.60;99.90;;;;;;5041390;28;19992;-94
2023/03/17 07:14:02;;;;;;;;;;;8.60;99.90;;;;;;5020342;28;20012;-93
2023/03/17 07:16:27;;;;;;;;;;;8.60;99.90;;;;;;5017591;28;19913;-94
2023/03/17 07:18:54;;;;;;;;;;;8.70;99.90;;;;;;5017886;28;19909;-90
2023/03/17 07:21:19;;;;;;;;;;;8.70;99.90;;;;;;5000356;28;19914;-89
2023/03/17 07:23:45;;;;;;;;;;;8.80;99.90;;;;;;5016652;28;19940;-90
2023/03/17 07:26:10;;;;;;;;;;;8.80;99.90;;;;;;5017928;28;19913;-90
2023/03/17 07:28:36;;;;;;;;;;;8.80;99.90;;;;;;5025612;28;19925;-89
2023/03/17 07:31:04;;;;;;;;;;;8.90;99.90;;;;;;5008111;28;19913;-89
2023/03/17 07:33:30;;;;;;;;;;;8.90;99.90;;;;;;5031484;28;19916;-90
2023/03/17 07:35:55;;;;;;;;;;;8.90;99.90;;;;;;5023862;28;19912;-93
2023/03/17 07:38:21;;;;;;;;;;;9.00;99.90;;;;;;5023980;28;19920;-92
2023/03/17 07:40:47;;;;;;;;;;;9.00;99.90;;;;;;5023534;28;19951;-92
2023/03/17 07:43:13;;;;;;;;;;;9.00;99.90;;;;;;5040032;28;19952;-92
2023/03/17 07:45:39;;;;;;;;;;;9.10;99.90;;;;;;5039982;28;19909;-93
2023/03/17 07:48:05;;;;;;;;;;;9.20;99.90;;;;;;5023648;28;19928;-91
2023/03/17 07:50:34;;;;;;;;;;;9.20;99.90;;;;;;5040310;28;19916;-91
2023/03/17 07:53:00;;;;;;;;;;;9.30;99.90;;;;;;5040007;28;19908;-92
2023/03/17 07:55:26;;;;;;;;;;;9.30;99.90;;;;;;5040068;28;20018;-93
2023/03/17 07:57:51;;;;;;;;;;;9.30;99.90;;;;;;5023678;28;19920;-89
2023/03/17 08:00:17;;;;;;;;;;;9.40;99.90;;;;;;5039442;28;19951;-90
2023/03/17 08:05:54;;;;;;;;;;;9.50;99.90;;;;;;5040414;28;19915;-89
2023/03/17 08:08:21;;;;;;;;;;;9.50;99.90;;;;;;5032926;28;19920;-90
2023/03/17 08:10:47;;;;;;;;;;;9.60;99.90;;;;;;5047861;28;20250;-91
2023/03/17 08:13:15;;;;;;;;;;;9.60;99.90;;;;;;5032129;28;19984;-91
2023/03/17 08:15:45;;;;;;;;;;;9.60;99.90;;;;;;5037992;28;20403;-92
2023/03/17 08:21:33;;;;;;;;;;;9.70;99.90;;;;;;5052262;28;20341;-92
2023/03/17 08:24:03;;;;;;;;;;;9.80;99.90;;;;;;5031688;28;20330;-91
2023/03/17 08:26:50;;;;;;;;;;;9.80;99.90;;;;;;5030536;28;19909;-91
2023/03/17 08:29:19;;;;;;;;;;;9.90;99.90;;;;;;5022121;28;19926;-92
2023/03/17 08:50:04;;;;;;;;;;;10.40;99.90;;;;;;5123385;22;20024;-92
2023/03/17 08:52:29;;;;;;;;;;;10.50;99.90;;;;;;5024966;28;19909;-94
2023/03/17 08:54:55;;;;;;;;;;;10.60;99.90;;;;;;5022170;28;19954;-93
2023/03/17 08:57:23;;;;;;;;;;;10.70;99.90;;;;;;5028354;28;19913;-93
2023/03/17 08:59:49;;;;;;;;;;;10.70;99.90;;;;;;5019349;28;19917;-93
2023/03/17 09:02:17;;;;;;;;;;;10.80;99.90;;;;;;5005187;28;19920;-94
2023/03/17 09:04:45;;;;;;;;;;;10.90;99.90;;;;;;5011071;28;20002;-95
2023/03/17 09:07:14;;;;;;;;;;;10.90;99.90;;;;;;5040551;28;19921;-92
2023/03/17 09:09:40;;;;;;;;;;;11.00;99.90;;;;;;5037150;28;19917;-95
2023/03/17 09:12:08;;;;;;;;;;;11.00;99.90;;;;;;5023324;28;19964;-93
2023/03/17 09:14:34;;;;;;;;;;;11.10;99.90;;;;;;5018960;28;19921;-95
2023/03/17 09:17:00;;;;;;;;;;;11.20;99.90;;;;;;5021207;28;19916;-91
2023/03/17 09:19:29;;;;;;;;;;;11.20;99.90;;;;;;5018956;28;19914;-94
2023/03/17 09:22:13;;;;;;;;;;;11.30;99.90;;;;;;5037461;28;19913;-95
2023/03/17 09:24:38;;;;;;;;;;;11.50;99.90;;;;;;5023851;28;19913;-94
2023/03/17 09:27:06;;;;;;;;;;;11.60;99.80;;;;;;5006655;28;19967;-95
2023/03/17 09:29:32;;;;;;;;;;;11.70;99.60;;;;;;5009571;28;19945;-95
2023/03/17 09:31:58;;;;;;;;;;;11.80;99.10;;;;;;5030551;28;19964;-85
2023/03/17 09:34:24;;;;;;;;;;;11.90;99.10;;;;;;5023760;28;19920;-87
2023/03/17 09:36:50;;;;;;;;;;;12.00;97.70;;;;;;5017533;28;19968;-93
2023/03/17 09:39:15;;;;;;;;;;;12.10;97.70;;;;;;5022676;28;19913;-94
2023/03/17 09:41:41;;;;;;;;;;;12.20;98.60;;;;;;5029220;28;19916;-90
2023/03/17 09:44:28;;;;;;;;;;;12.20;98.90;;;;;;5027666;28;19910;-96
2023/03/17 09:47:01;;;;;;;;;;;12.30;98.60;;;;;;5030320;28;19941;-94
2023/03/17 09:49:47;;;;;;;;;;;12.40;98.70;;;;;;5034933;28;19929;-91
2023/03/17 09:52:19;;;;;;;;;;;12.50;98.40;;;;;;5034919;28;19928;-93
2023/03/17 09:54:47;;;;;;;;;;;12.70;97.30;;;;;;5034816;28;19920;-91
2023/03/17 09:57:33;;;;;;;;;;;12.70;97.90;;;;;;5028220;28;19920;-90
2023/03/17 10:00:45;;;;;;;;;;;;;;;;;;;;;
2023/03/17 10:03:15;;;;;;;;;;;13.00;96.40;;;;;;4989118;28;19914;-91
2023/03/17 10:05:46;;;;;;;;;;;13.20;96.00;;;;;;5021824;28;19961;-93
2023/03/17 10:08:34;;;;;;;;;;;13.30;95.20;;;;;;5021464;28;19967;-94
2023/03/17 10:11:14;;;;;;;;;;;13.40;95.30;;;;;;5021127;28;20368;-93
2023/03/17 10:13:47;;;;;;;;;;;13.40;95.20;;;;;;5016899;28;19917;-91
2023/03/17 10:16:17;;;;;;;;;;;13.50;95.50;;;;;;5019075;28;19914;-92
2023/03/17 10:18:45;;;;;;;;;;;13.60;94.10;;;;;;5021256;28;20375;-90
2023/03/17 10:21:17;;;;;;;;;;;13.70;94.20;;;;;;5022768;28;19913;-91
2023/03/17 10:23:43;;;;;;;;;;;13.80;93.70;;;;;;5017107;28;19909;-92
2023/03/17 10:26:24;;;;;;;;;;;13.80;93.80;;;;;;5018711;28;19916;-91
2023/03/17 10:28:51;;;;;;;;;;;13.90;94.70;;;;;;5021433;28;19925;-89
2023/03/17 10:31:18;;;;;;;;;;;14.00;94.80;;;;;;5029640;28;19917;-92
2023/03/17 10:33:47;;;;;;;;;;;14.10;94.50;;;;;;5019799;28;19958;-94
2023/03/17 10:36:14;;;;;;;;;;;14.20;93.80;;;;;;5033532;28;19913;-93
2023/03/17 10:38:40;;;;;;;;;;;14.30;93.50;;;;;;5023575;28;19920;-95
2023/03/17 10:41:08;;;;;;;;;;;14.40;93.40;;;;;;5005511;28;19917;-91
2023/03/17 10:43:39;;;;;;;;;;;14.50;93.20;;;;;;5018122;28;19909;-92
2023/03/17 10:46:06;;;;;;;;;;;14.50;92.90;;;;;;5015618;28;19992;-91
2023/03/17 10:48:38;;;;;;;;;;;14.70;92.70;;;;;;5020941;28;19917;-90
2023/03/17 10:51:06;;;;;;;;;;;14.70;93.40;;;;;;5019862;28;19964;-91
2023/03/17 10:53:36;;;;;;;;;;;14.80;92.80;;;;;;5034163;28;19913;-93
2023/03/17 10:56:17;;;;;;;;;;;14.80;92.60;;;;;;5028415;28;20111;-92
2023/03/17 10:58:47;;;;;;;;;;;15.00;91.30;;;;;;5035521;28;20000;-90
2023/03/17 11:01:18;;;;;;;;;;;15.00;91.80;;;;;;5026506;28;20001;-93
2023/03/17 11:03:45;;;;;;;;;;;15.00;92.20;;;;;;5017724;28;20015;-89
2023/03/17 11:06:15;;;;;;;;;;;15.10;91.90;;;;;;5021644;28;19996;-91
2023/03/17 11:08:47;;;;;;;;;;;15.20;91.70;;;;;;5026392;28;19949;-93
2023/03/17 11:11:29;;;;;;;;;;;15.30;91.80;;;;;;5027771;28;20011;-92
2023/03/17 11:14:02;;;;;;;;;;;15.30;91.70;;;;;;5019778;28;19916;-93
2023/03/17 11:16:29;;;;;;;;;;;15.40;91.60;;;;;;5022374;28;20526;-92
2023/03/17 11:18:56;;;;;;;;;;;15.50;91.30;;;;;;5030987;28;19920;-92
2023/03/17 11:21:26;;;;;;;;;;;15.50;91.00;;;;;;5028198;28;19909;-92
2023/03/17 11:23:58;;;;;;;;;;;15.50;91.50;;;;;;5027538;28;19921;-91
2023/03/17 11:26:32;;;;;;;;;;;15.60;91.20;;;;;;5044493;28;19909;-93
2023/03/17 11:29:18;;;;;;;;;;;15.60;91.20;;;;;;5025220;28;19969;-94
2023/03/17 11:31:50;;;;;;;;;;;15.70;91.10;;;;;;5046997;28;19913;-94
2023/03/17 11:34:20;;;;;;;;;;;15.70;90.90;;;;;;5022900;28;19909;-94
2023/03/17 11:36:56;;;;;;;;;;;15.80;91.00;;;;;;5025941;28;19909;-93
2023/03/17 11:39:21;;;;;;;;;;;15.90;91.40;;;;;;5026041;28;20023;-92
2023/03/17 11:42:11;;;;;;;;;;;15.90;90.50;;;;;;5039518;28;19917;-93
2023/03/17 11:44:48;;;;;;;;;;;16.00;90.70;;;;;;5022401;28;19921;-92
2023/03/17 11:47:35;;;;;;;;;;;16.00;90.20;;;;;;5046098;28;19919;-95
2023/03/17 11:50:05;;;;;;;;;;;16.10;90.40;;;;;;5006520;28;20292;-93
2023/03/17 11:52:36;;;;;;;;;;;16.10;89.40;;;;;;5027499;28;19910;-91
2023/03/17 11:55:10;;;;;;;;;;;16.20;90.20;;;;;;5035663;28;19909;-95
2023/03/17 11:57:54;;;;;;;;;;;16.30;90.40;;;;;;5006174;28;19909;-94
2023/03/17 12:00:37;;;;;;;;;;;16.40;90.90;;;;;;4999696;28;19910;-95
2023/03/17 12:03:26;;;;;;;;;;;16.50;90.40;;;;;;5041783;28;19940;-95
2023/03/17 12:06:00;;;;;;;;;;;16.60;90.10;;;;;;5039700;28;19914;-95
2023/03/17 12:08:52;;;;;;;;;;;16.60;89.80;;;;;;5011353;28;19921;-91
2023/03/17 12:11:23;;;;;;;;;;;16.70;90.10;;;;;;5011609;28;19914;-94
2023/03/17 12:14:12;;;;;;;;;;;16.90;88.60;;;;;;5030656;28;20373;-93
2023/03/17 12:17:03;;;;;;;;;;;17.00;90.50;;;;;;5026316;28;19918;-95
2023/03/17 12:19:36;;;;;;;;;;;17.10;88.60;;;;;;5010922;28;19924;-95
2023/03/17 12:22:10;;;;;;;;;;;17.10;89.80;;;;;;5000184;28;19916;-93
2023/03/17 12:24:42;;;;;;;;;;;17.20;90.40;;;;;;5006329;28;19920;-93
2023/03/17 12:27:26;;;;;;;;;;;17.30;90.70;;;;;;5007248;28;19917;-96
2023/03/17 12:29:57;;;;;;;;;;;17.40;91.00;;;;;;5004117;28;20043;-94
2023/03/17 12:32:37;;;;;;;;;;;17.50;90.70;;;;;;5005755;28;19909;-94
2023/03/17 12:35:25;;;;;;;;;;;17.60;90.50;;;;;;5028388;28;19989;-93
2023/03/17 12:37:51;;;;;;;;;;;17.60;90.60;;;;;;5031229;28;19995;-94
2023/03/17 12:40:19;;;;;;;;;;;17.70;90.20;;;;;;4987692;28;19913;-93
2023/03/17 12:42:51;;;;;;;;;;;17.80;89.50;;;;;;5005229;28;19977;-94
2023/03/17 12:45:40;;;;;;;;;;;17.80;90.20;;;;;;5009770;28;19941;-93
2023/03/17 12:48:19;;;;;;;;;;;17.90;90.50;;;;;;5000864;28;19955;-93
2023/03/17 12:51:05;;;;;;;;;;;18.00;90.50;;;;;;5036784;28;19921;-94
2023/03/17 12:53:40;;;;;;;;;;;18.00;90.70;;;;;;5021145;28;19913;-94
2023/03/17 12:56:20;;;;;;;;;;;18.10;90.10;;;;;;5028060;28;19949;-94
2023/03/17 12:58:50;;;;;;;;;;;18.10;86.40;;;;;;5025261;28;19913;-95
2023/03/17 13:01:32;;;;;;;;;;;18.10;86.70;;;;;;5024390;28;19909;-94
2023/03/17 13:04:01;;;;;;;;;;;18.20;86.40;;;;;;5024529;28;19952;-95
2023/03/17 13:06:29;;;;;;;;;;;18.20;86.80;;;;;;5052695;28;19909;-91
2023/03/17 13:08:55;;;;;;;;;;;18.30;86.00;;;;;;5061749;28;19920;-95
2023/03/17 13:11:44;;;;;;;;;;;18.40;87.00;;;;;;5038961;28;19920;-94
2023/03/17 13:14:28;;;;;;;;;;;18.40;88.10;;;;;;5038048;28;19920;-94
2023/03/17 13:17:05;;;;;;;;;;;18.50;88.30;;;;;;5061641;28;20020;-94
2023/03/17 13:19:31;;;;;;;;;;;18.60;86.00;;;;;;5056067;28;19912;-94
2023/03/17 13:22:03;;;;;;;;;;;18.50;84.50;;;;;;5040368;28;19917;-93
2023/03/17 13:24:35;;;;;;;;;;;18.50;84.00;;;;;;5022029;28;19917;-92
2023/03/17 13:27:03;;;;;;;;;;;18.50;81.90;;;;;;5027092;28;19917;-94
2023/03/17 13:29:32;;;;;;;;;;;18.50;82.70;;;;;;5031528;28;19916;-94
2023/03/17 13:32:16;;;;;;;;;;;18.40;80.80;;;;;;5027466;28;19975;-95
2023/03/17 13:34:47;;;;;;;;;;;18.40;83.10;;;;;;5024836;28;19913;-92
2023/03/17 13:37:36;;;;;;;;;;;18.40;81.60;;;;;;5050503;28;19909;-96
2023/03/17 13:40:21;;;;;;;;;;;18.50;80.80;;;;;;5008670;28;19917;-91
2023/03/17 13:42:49;;;;;;;;;;;18.50;80.50;;;;;;5020930;28;19935;-93
2023/03/17 13:45:34;;;;;;;;;;;18.50;81.20;;;;;;5027178;28;19916;-92
2023/03/17 13:52:01;;;;;;;;;;;18.40;79.80;;;;;;4936722;29;19951;-90
2023/03/17 13:54:46;;;;;;;;;;;18.40;82.00;;;;;;4899018;29;19916;-91
2023/03/17 13:57:30;;;;;;;;;;;18.50;80.50;;;;;;4895251;29;19912;-90
2023/03/17 14:19:03;;;;;;;;;;;18.60;79.90;;;;;;4974662;28;19922;-93
2023/03/17 14:24:36;;;;;;;;;;;18.80;81.00;;;;;;4957760;29;20304;-91
2023/03/17 14:33:25;;;;;;;;;;;19.00;79.40;;;;;;4980161;22;19936;-93
2023/03/17 14:35:52;;;;;;;;;;;19.10;80.50;;;;;;5008235;28;19916;-93
2023/03/17 14:38:21;;;;;;;;;;;19.10;80.40;;;;;;5001834;28;19917;-95
2023/03/17 14:40:47;;;;;;;;;;;19.10;82.00;;;;;;5013225;28;19916;-91
2023/03/17 14:43:13;;;;;;;;;;;19.20;83.50;;;;;;5027460;28;19913;-92
2023/03/17 14:45:39;;;;;;;;;;;19.20;82.10;;;;;;5003751;28;19929;-93
2023/03/17 14:48:05;;;;;;;;;;;19.20;81.20;;;;;;5008504;28;19940;-93
2023/03/17 14:50:31;;;;;;;;;;;19.10;79.50;;;;;;5004483;28;19914;-90
2023/03/17 14:52:58;;;;;;;;;;;19.10;79.80;;;;;;5006237;28;19973;-96
2023/03/17 14:55:34;;;;;;;;;;;19.10;80.20;;;;;;5013845;28;19927;-96
2023/03/17 14:58:05;;;;;;;;;;;19.10;81.10;;;;;;5018247;28;19977;-95
2023/03/17 15:00:36;;;;;;;;;;;19.10;80.90;;;;;;5013844;28;20000;-94
2023/03/17 15:03:04;;;;;;;;;;;19.10;81.50;;;;;;5030961;28;20399;-95
2023/03/17 15:05:40;;;;;;;;;;;19.10;80.10;;;;;;5012568;28;19964;-95
2023/03/17 15:08:25;;;;;;;;;;;19.10;81.20;;;;;;5023146;28;19963;-95
2023/03/17 15:10:50;;;;;;;;;;;19.10;80.90;;;;;;4999905;28;20004;-90
2023/03/17 15:13:16;;;;;;;;;;;19.10;83.70;;;;;;5008649;28;19944;-93
2023/03/17 15:15:43;;;;;;;;;;;19.10;84.30;;;;;;5010179;28;19898;-93
2023/03/17 15:18:11;;;;;;;;;;;19.10;83.90;;;;;;4997320;28;20425;-95
2023/03/17 15:20:41;;;;;;;;;;;19.10;84.30;;;;;;5000617;28;20116;-94
2023/03/17 15:23:17;;;;;;;;;;;19.20;83.80;;;;;;5011204;28;20421;-93
2023/03/17 15:25:47;;;;;;;;;;;19.20;85.20;;;;;;5004908;28;19999;-92
2023/03/17 15:28:14;;;;;;;;;;;19.20;87.60;;;;;;4986532;28;19921;-91
2023/03/17 15:30:43;;;;;;;;;;;19.20;86.20;;;;;;5003172;28;19909;-91
2023/03/17 15:33:17;;;;;;;;;;;19.20;86.20;;;;;;5019553;28;19922;-92
2023/03/17 15:35:43;;;;;;;;;;;19.20;86.00;;;;;;5009952;28;19909;-92
2023/03/17 15:38:10;;;;;;;;;;;19.20;86.10;;;;;;5013364;28;20269;-93